Salt Lake City, Utah
Traffic Map
Current Weather Conditions
Salt Lake City, Utah
Few Clouds
Few Clouds
59°
Feels Like: 59°
Wind Chill: 59° Ceiling: Unl
Heat Index: 59° Visibility: 10mi
Dew Point: 44° Wind: 0mph
Humidity: 58% Direction: ° ()
Pressure: 30.02in Gusts: 0mph
Raw Report DataKSLC 281354Z 00000KT 10SM FEW070 FEW090 15/07 A3002 RMK AO2 SLP127 T01500067
Traffic Incident Summary
Active as of:
Severity:
Category:
InformationThere was an issue retrieving the traffic information for this location. Please try a different location or try again shortly.
Advertisements
Track Severe Weather on mobile